Startpagina
METAR-TAF:

METAR-TAF

Vliegvelden :

Caracas, Venezuela

Aeropuerto Internacional de Maiquetía Simón Bolívar

breedte: 10-36N, lengte: 066-59W, hoogte: 43 m

Actueel weer

Dit bericht is 31 minuten geleden gemaakt, om 12:00 UTC
Weinig wind
Temperatuur 28°C
Vochtigheid 74%
Druk 1013 hPa
Zicht 10 km of meer
Weinig wolken op 1600 ft

METAR: SVMI 251200Z 00000KT 9999 FEW016 28/23 Q1013

Tijdstip: 08:31 (12:31 UTC)

Verwachting

Dit bericht is 2 uur en het 31 minuten geleden gemaakt, om 10:00 UTC
Verwachting geldig van 25 om 12 UTC tot 26 om 12 UTC
Wind 10 kt uit het zuidoosten
Zicht 10 km of meer
Verspreide wolken op 1300 ft
Wijzigt naar
van 25 om 12 UTC tot 25 om 16 UTC
Wind 10 kt uit het zuidzuidwesten
Weinig wolken op 1300 ft

TAF: SVMI 251000Z 2512/2612 14010KT 9999 SCT013 TX34/18Z TN24/09Z BECMG 2512/2516 20010KT FEW013

Waarnemingen en weersverwachtingen van meer dan 4000 vliegvelden (METAR en TAF).

De beschikbare stations zijn de gele en rode punten op de kaart.

Ga met uw muis naar het station om de naam te zien.

Klik dan om waarnemingen en weersverwachtingen te zien.

kaart wijzigen: klik op de groene knoppen met een zwart kruis om in te zoomen, op de groene knop met een streepje om uit te zoomen of op de groene pijlen voor aangrenzende kaarten.


METAR-TAF: